sensor_id;sensor_type;location;lat;lon;timestamp;P1;durP1;ratioP1;P2;durP2;ratioP2
6101;SDS011;3081;50.584;7.032;2023-01-25T00:00:03;16.17;;;9.20;;
6101;SDS011;3081;50.584;7.032;2023-01-25T00:02:31;14.70;;;7.80;;
6101;SDS011;3081;50.584;7.032;2023-01-25T00:04:58;15.97;;;9.63;;
6101;SDS011;3081;50.584;7.032;2023-01-25T00:07:25;14.60;;;8.20;;
6101;SDS011;3081;50.584;7.032;2023-01-25T00:09:51;15.80;;;8.87;;
6101;SDS011;3081;50.584;7.032;2023-01-25T00:12:20;15.73;;;9.07;;
6101;SDS011;3081;50.584;7.032;2023-01-25T00:14:47;15.93;;;8.80;;
6101;SDS011;3081;50.584;7.032;2023-01-25T00:17:13;16.80;;;9.80;;
6101;SDS011;3081;50.584;7.032;2023-01-25T00:19:40;18.20;;;10.37;;
6101;SDS011;3081;50.584;7.032;2023-01-25T00:22:07;17.73;;;9.50;;
6101;SDS011;3081;50.584;7.032;2023-01-25T00:24:34;15.60;;;9.40;;
6101;SDS011;3081;50.584;7.032;2023-01-25T00:27:01;16.50;;;8.53;;
6101;SDS011;3081;50.584;7.032;2023-01-25T00:29:30;15.90;;;9.43;;
6101;SDS011;3081;50.584;7.032;2023-01-25T00:31:57;12.73;;;8.80;;
6101;SDS011;3081;50.584;7.032;2023-01-25T00:34:42;16.43;;;9.93;;
6101;SDS011;3081;50.584;7.032;2023-01-25T00:37:18;18.80;;;10.70;;
6101;SDS011;3081;50.584;7.032;2023-01-25T00:39:49;18.60;;;11.07;;
6101;SDS011;3081;50.584;7.032;2023-01-25T00:42:17;17.07;;;9.77;;
6101;SDS011;3081;50.584;7.032;2023-01-25T00:44:46;16.67;;;9.43;;
6101;SDS011;3081;50.584;7.032;2023-01-25T00:47:13;16.70;;;9.90;;
6101;SDS011;3081;50.584;7.032;2023-01-25T00:49:41;18.33;;;11.50;;
6101;SDS011;3081;50.584;7.032;2023-01-25T00:52:09;18.87;;;11.57;;
6101;SDS011;3081;50.584;7.032;2023-01-25T00:54:37;21.40;;;11.10;;
6101;SDS011;3081;50.584;7.032;2023-01-25T00:57:04;21.67;;;11.90;;
6101;SDS011;3081;50.584;7.032;2023-01-25T00:59:31;19.37;;;11.27;;
6101;SDS011;3081;50.584;7.032;2023-01-25T01:02:00;23.33;;;12.80;;
6101;SDS011;3081;50.584;7.032;2023-01-25T01:04:27;25.80;;;11.10;;
6101;SDS011;3081;50.584;7.032;2023-01-25T01:06:54;20.37;;;12.20;;
6101;SDS011;3081;50.584;7.032;2023-01-25T01:09:22;18.77;;;10.37;;
6101;SDS011;3081;50.584;7.032;2023-01-25T01:11:49;14.80;;;9.30;;
6101;SDS011;3081;50.584;7.032;2023-01-25T01:14:16;14.93;;;9.10;;
6101;SDS011;3081;50.584;7.032;2023-01-25T01:16:43;14.87;;;8.13;;
6101;SDS011;3081;50.584;7.032;2023-01-25T01:19:12;15.47;;;9.20;;
6101;SDS011;3081;50.584;7.032;2023-01-25T01:21:39;16.37;;;8.93;;
6101;SDS011;3081;50.584;7.032;2023-01-25T01:24:07;15.30;;;9.40;;
6101;SDS011;3081;50.584;7.032;2023-01-25T01:26:34;15.83;;;9.07;;
6101;SDS011;3081;50.584;7.032;2023-01-25T01:29:01;16.57;;;10.10;;
6101;SDS011;3081;50.584;7.032;2023-01-25T01:31:28;16.20;;;9.73;;
6101;SDS011;3081;50.584;7.032;2023-01-25T01:33:55;16.80;;;10.30;;
6101;SDS011;3081;50.584;7.032;2023-01-25T01:36:25;18.20;;;10.40;;
6101;SDS011;3081;50.584;7.032;2023-01-25T01:38:54;15.37;;;9.97;;
6101;SDS011;3081;50.584;7.032;2023-01-25T01:41:21;19.00;;;11.00;;
6101;SDS011;3081;50.584;7.032;2023-01-25T01:43:48;17.27;;;10.30;;
6101;SDS011;3081;50.584;7.032;2023-01-25T01:46:19;15.83;;;8.90;;
6101;SDS011;3081;50.584;7.032;2023-01-25T01:48:53;15.77;;;9.33;;
6101;SDS011;3081;50.584;7.032;2023-01-25T01:51:27;17.27;;;11.07;;
6101;SDS011;3081;50.584;7.032;2023-01-25T01:54:06;18.30;;;11.80;;
6101;SDS011;3081;50.584;7.032;2023-01-25T01:56:40;16.50;;;10.40;;
6101;SDS011;3081;50.584;7.032;2023-01-25T01:59:12;15.80;;;10.00;;
6101;SDS011;3081;50.584;7.032;2023-01-25T02:01:40;19.73;;;11.73;;
6101;SDS011;3081;50.584;7.032;2023-01-25T02:04:08;19.70;;;11.97;;
6101;SDS011;3081;50.584;7.032;2023-01-25T02:06:41;21.60;;;12.07;;
6101;SDS011;3081;50.584;7.032;2023-01-25T02:09:12;17.97;;;10.30;;
6101;SDS011;3081;50.584;7.032;2023-01-25T02:11:41;19.67;;;11.87;;
6101;SDS011;3081;50.584;7.032;2023-01-25T02:14:08;15.70;;;10.10;;
6101;SDS011;3081;50.584;7.032;2023-01-25T02:16:36;16.40;;;9.77;;
6101;SDS011;3081;50.584;7.032;2023-01-25T02:19:03;18.70;;;10.87;;
6101;SDS011;3081;50.584;7.032;2023-01-25T02:21:34;19.87;;;11.73;;
6101;SDS011;3081;50.584;7.032;2023-01-25T02:24:08;20.03;;;12.60;;
6101;SDS011;3081;50.584;7.032;2023-01-25T02:26:41;15.20;;;9.60;;
6101;SDS011;3081;50.584;7.032;2023-01-25T02:29:10;17.50;;;10.20;;
6101;SDS011;3081;50.584;7.032;2023-01-25T02:31:37;16.03;;;9.20;;
6101;SDS011;3081;50.584;7.032;2023-01-25T02:34:04;17.33;;;10.07;;
6101;SDS011;3081;50.584;7.032;2023-01-25T02:36:32;18.50;;;11.90;;
6101;SDS011;3081;50.584;7.032;2023-01-25T02:39:00;18.07;;;10.53;;
6101;SDS011;3081;50.584;7.032;2023-01-25T02:41:32;16.40;;;11.23;;
6101;SDS011;3081;50.584;7.032;2023-01-25T02:44:03;17.70;;;9.90;;
6101;SDS011;3081;50.584;7.032;2023-01-25T02:46:33;19.43;;;10.73;;
6101;SDS011;3081;50.584;7.032;2023-01-25T02:49:01;19.77;;;9.97;;
6101;SDS011;3081;50.584;7.032;2023-01-25T02:51:30;17.23;;;10.80;;
6101;SDS011;3081;50.584;7.032;2023-01-25T02:53:58;21.00;;;10.93;;
6101;SDS011;3081;50.584;7.032;2023-01-25T02:56:26;14.37;;;8.00;;
6101;SDS011;3081;50.584;7.032;2023-01-25T02:58:53;14.20;;;8.60;;
6101;SDS011;3081;50.584;7.032;2023-01-25T03:01:22;17.77;;;8.90;;
6101;SDS011;3081;50.584;7.032;2023-01-25T03:03:49;15.73;;;9.57;;
6101;SDS011;3081;50.584;7.032;2023-01-25T03:06:16;17.57;;;9.60;;
6101;SDS011;3081;50.584;7.032;2023-01-25T03:08:43;18.30;;;12.10;;
6101;SDS011;3081;50.584;7.032;2023-01-25T03:11:10;18.80;;;11.20;;
6101;SDS011;3081;50.584;7.032;2023-01-25T03:13:36;19.47;;;11.60;;
6101;SDS011;3081;50.584;7.032;2023-01-25T03:16:05;18.33;;;10.80;;
6101;SDS011;3081;50.584;7.032;2023-01-25T03:18:35;21.07;;;11.30;;
6101;SDS011;3081;50.584;7.032;2023-01-25T03:21:05;17.40;;;10.80;;
6101;SDS011;3081;50.584;7.032;2023-01-25T03:23:33;17.97;;;9.70;;
6101;SDS011;3081;50.584;7.032;2023-01-25T03:26:07;18.47;;;10.30;;
6101;SDS011;3081;50.584;7.032;2023-01-25T03:28:35;17.77;;;9.40;;
6101;SDS011;3081;50.584;7.032;2023-01-25T03:31:03;17.70;;;10.90;;
6101;SDS011;3081;50.584;7.032;2023-01-25T03:33:30;19.33;;;10.80;;
6101;SDS011;3081;50.584;7.032;2023-01-25T03:35:59;18.10;;;10.50;;
6101;SDS011;3081;50.584;7.032;2023-01-25T03:38:26;18.40;;;10.97;;
6101;SDS011;3081;50.584;7.032;2023-01-25T03:40:53;19.63;;;11.53;;
6101;SDS011;3081;50.584;7.032;2023-01-25T03:43:21;18.07;;;10.40;;
6101;SDS011;3081;50.584;7.032;2023-01-25T03:45:52;18.00;;;10.23;;
6101;SDS011;3081;50.584;7.032;2023-01-25T03:48:19;18.40;;;10.67;;
6101;SDS011;3081;50.584;7.032;2023-01-25T03:50:49;21.87;;;11.53;;
6101;SDS011;3081;50.584;7.032;2023-01-25T03:53:21;17.20;;;10.50;;
6101;SDS011;3081;50.584;7.032;2023-01-25T03:55:54;16.87;;;8.33;;
6101;SDS011;3081;50.584;7.032;2023-01-25T03:58:22;20.50;;;11.07;;
6101;SDS011;3081;50.584;7.032;2023-01-25T04:00:49;18.37;;;9.30;;
6101;SDS011;3081;50.584;7.032;2023-01-25T04:03:16;20.57;;;11.47;;
6101;SDS011;3081;50.584;7.032;2023-01-25T04:05:44;20.00;;;11.67;;
6101;SDS011;3081;50.584;7.032;2023-01-25T04:08:11;21.73;;;12.27;;
6101;SDS011;3081;50.584;7.032;2023-01-25T04:10:39;20.23;;;10.73;;
6101;SDS011;3081;50.584;7.032;2023-01-25T04:13:06;18.63;;;10.43;;
6101;SDS011;3081;50.584;7.032;2023-01-25T04:15:33;17.70;;;10.13;;
6101;SDS011;3081;50.584;7.032;2023-01-25T04:18:00;18.87;;;10.53;;
6101;SDS011;3081;50.584;7.032;2023-01-25T04:20:27;22.43;;;11.60;;
6101;SDS011;3081;50.584;7.032;2023-01-25T04:22:54;19.70;;;11.33;;
6101;SDS011;3081;50.584;7.032;2023-01-25T04:25:21;18.40;;;10.83;;
6101;SDS011;3081;50.584;7.032;2023-01-25T04:27:50;20.80;;;11.27;;
6101;SDS011;3081;50.584;7.032;2023-01-25T04:30:17;19.67;;;11.23;;
6101;SDS011;3081;50.584;7.032;2023-01-25T04:32:44;24.60;;;13.53;;
6101;SDS011;3081;50.584;7.032;2023-01-25T04:35:11;24.97;;;12.77;;
6101;SDS011;3081;50.584;7.032;2023-01-25T04:37:37;23.17;;;12.60;;
6101;SDS011;3081;50.584;7.032;2023-01-25T04:40:05;22.80;;;12.40;;
6101;SDS011;3081;50.584;7.032;2023-01-25T04:42:33;23.03;;;12.60;;
6101;SDS011;3081;50.584;7.032;2023-01-25T04:45:02;20.87;;;11.90;;
6101;SDS011;3081;50.584;7.032;2023-01-25T04:47:29;22.17;;;11.50;;
6101;SDS011;3081;50.584;7.032;2023-01-25T04:49:56;20.57;;;10.97;;
6101;SDS011;3081;50.584;7.032;2023-01-25T04:52:23;22.53;;;11.60;;
6101;SDS011;3081;50.584;7.032;2023-01-25T04:54:50;17.60;;;10.40;;
6101;SDS011;3081;50.584;7.032;2023-01-25T04:57:17;21.07;;;11.00;;
6101;SDS011;3081;50.584;7.032;2023-01-25T04:59:44;21.20;;;12.50;;
6101;SDS011;3081;50.584;7.032;2023-01-25T05:02:12;24.30;;;12.30;;
6101;SDS011;3081;50.584;7.032;2023-01-25T05:04:39;24.67;;;12.37;;
6101;SDS011;3081;50.584;7.032;2023-01-25T05:07:06;17.80;;;9.60;;
6101;SDS011;3081;50.584;7.032;2023-01-25T05:09:33;21.43;;;11.57;;
6101;SDS011;3081;50.584;7.032;2023-01-25T05:11:59;22.23;;;10.60;;
6101;SDS011;3081;50.584;7.032;2023-01-25T05:14:26;22.60;;;11.90;;
6101;SDS011;3081;50.584;7.032;2023-01-25T05:16:53;23.50;;;12.60;;
6101;SDS011;3081;50.584;7.032;2023-01-25T05:19:21;21.77;;;12.27;;
6101;SDS011;3081;50.584;7.032;2023-01-25T05:21:48;21.77;;;11.60;;
6101;SDS011;3081;50.584;7.032;2023-01-25T05:24:24;18.27;;;10.03;;
6101;SDS011;3081;50.584;7.032;2023-01-25T05:26:52;23.60;;;10.97;;
6101;SDS011;3081;50.584;7.032;2023-01-25T05:29:28;27.43;;;12.93;;
6101;SDS011;3081;50.584;7.032;2023-01-25T05:31:55;23.40;;;13.43;;
6101;SDS011;3081;50.584;7.032;2023-01-25T05:34:24;23.00;;;12.10;;
6101;SDS011;3081;50.584;7.032;2023-01-25T05:36:51;21.00;;;10.60;;
6101;SDS011;3081;50.584;7.032;2023-01-25T05:39:18;17.60;;;9.40;;
6101;SDS011;3081;50.584;7.032;2023-01-25T05:41:45;18.67;;;10.67;;
6101;SDS011;3081;50.584;7.032;2023-01-25T05:44:12;26.60;;;13.27;;
6101;SDS011;3081;50.584;7.032;2023-01-25T05:46:39;18.43;;;9.40;;
6101;SDS011;3081;50.584;7.032;2023-01-25T05:49:06;21.10;;;11.60;;
6101;SDS011;3081;50.584;7.032;2023-01-25T05:51:34;17.93;;;9.77;;
6101;SDS011;3081;50.584;7.032;2023-01-25T05:54:02;22.90;;;10.20;;
6101;SDS011;3081;50.584;7.032;2023-01-25T05:56:29;19.17;;;9.57;;
6101;SDS011;3081;50.584;7.032;2023-01-25T05:58:57;14.87;;;8.00;;
6101;SDS011;3081;50.584;7.032;2023-01-25T06:01:25;15.37;;;7.07;;
6101;SDS011;3081;50.584;7.032;2023-01-25T06:03:53;17.67;;;10.17;;
6101;SDS011;3081;50.584;7.032;2023-01-25T06:06:20;21.70;;;9.30;;
6101;SDS011;3081;50.584;7.032;2023-01-25T06:08:49;20.97;;;10.13;;
6101;SDS011;3081;50.584;7.032;2023-01-25T06:11:17;22.60;;;9.77;;
6101;SDS011;3081;50.584;7.032;2023-01-25T06:13:45;22.80;;;11.07;;
6101;SDS011;3081;50.584;7.032;2023-01-25T06:16:13;22.50;;;11.70;;
6101;SDS011;3081;50.584;7.032;2023-01-25T06:18:40;24.87;;;13.10;;
6101;SDS011;3081;50.584;7.032;2023-01-25T06:21:07;27.07;;;13.10;;
6101;SDS011;3081;50.584;7.032;2023-01-25T06:23:34;24.77;;;12.43;;
6101;SDS011;3081;50.584;7.032;2023-01-25T06:26:03;21.40;;;9.37;;
6101;SDS011;3081;50.584;7.032;2023-01-25T06:28:32;19.87;;;10.87;;
6101;SDS011;3081;50.584;7.032;2023-01-25T06:31:03;20.30;;;10.50;;
6101;SDS011;3081;50.584;7.032;2023-01-25T06:33:32;22.33;;;10.97;;
6101;SDS011;3081;50.584;7.032;2023-01-25T06:35:59;21.80;;;8.97;;
6101;SDS011;3081;50.584;7.032;2023-01-25T06:38:27;21.13;;;9.97;;
6101;SDS011;3081;50.584;7.032;2023-01-25T06:40:57;23.77;;;11.50;;
6101;SDS011;3081;50.584;7.032;2023-01-25T06:43:28;18.87;;;9.37;;
6101;SDS011;3081;50.584;7.032;2023-01-25T06:45:56;19.67;;;9.77;;
6101;SDS011;3081;50.584;7.032;2023-01-25T06:48:24;20.40;;;8.60;;
6101;SDS011;3081;50.584;7.032;2023-01-25T06:50:54;27.90;;;9.00;;
6101;SDS011;3081;50.584;7.032;2023-01-25T06:53:23;24.37;;;11.17;;
6101;SDS011;3081;50.584;7.032;2023-01-25T06:55:55;26.37;;;15.40;;
6101;SDS011;3081;50.584;7.032;2023-01-25T06:58:23;22.00;;;10.50;;
6101;SDS011;3081;50.584;7.032;2023-01-25T07:00:52;23.70;;;9.27;;
6101;SDS011;3081;50.584;7.032;2023-01-25T07:03:19;26.55;;;11.90;;
6101;SDS011;3081;50.584;7.032;2023-01-25T07:05:46;27.60;;;12.17;;
6101;SDS011;3081;50.584;7.032;2023-01-25T07:08:15;27.03;;;11.00;;
6101;SDS011;3081;50.584;7.032;2023-01-25T07:10:42;26.33;;;9.30;;
6101;SDS011;3081;50.584;7.032;2023-01-25T07:13:09;21.30;;;10.30;;
6101;SDS011;3081;50.584;7.032;2023-01-25T07:15:37;20.67;;;10.20;;
6101;SDS011;3081;50.584;7.032;2023-01-25T07:18:04;21.20;;;9.60;;
6101;SDS011;3081;50.584;7.032;2023-01-25T07:20:31;21.33;;;9.47;;
6101;SDS011;3081;50.584;7.032;2023-01-25T07:22:58;24.37;;;10.27;;
6101;SDS011;3081;50.584;7.032;2023-01-25T07:25:25;27.67;;;12.47;;
6101;SDS011;3081;50.584;7.032;2023-01-25T07:27:52;18.50;;;9.00;;
6101;SDS011;3081;50.584;7.032;2023-01-25T07:30:19;20.70;;;9.80;;
6101;SDS011;3081;50.584;7.032;2023-01-25T07:32:48;22.80;;;10.13;;
6101;SDS011;3081;50.584;7.032;2023-01-25T07:35:14;26.67;;;11.20;;
6101;SDS011;3081;50.584;7.032;2023-01-25T07:37:41;30.93;;;13.03;;
6101;SDS011;3081;50.584;7.032;2023-01-25T07:40:09;31.53;;;14.80;;
6101;SDS011;3081;50.584;7.032;2023-01-25T07:42:37;28.53;;;14.57;;
6101;SDS011;3081;50.584;7.032;2023-01-25T07:45:04;24.63;;;12.80;;
6101;SDS011;3081;50.584;7.032;2023-01-25T07:47:32;45.30;;;21.13;;
6101;SDS011;3081;50.584;7.032;2023-01-25T07:50:00;40.40;;;18.53;;
6101;SDS011;3081;50.584;7.032;2023-01-25T07:52:27;29.07;;;12.20;;
6101;SDS011;3081;50.584;7.032;2023-01-25T07:54:54;26.87;;;12.80;;
6101;SDS011;3081;50.584;7.032;2023-01-25T07:57:21;20.70;;;9.93;;
6101;SDS011;3081;50.584;7.032;2023-01-25T07:59:49;17.47;;;8.20;;
6101;SDS011;3081;50.584;7.032;2023-01-25T08:02:16;19.40;;;8.53;;
6101;SDS011;3081;50.584;7.032;2023-01-25T08:04:43;18.67;;;8.20;;
6101;SDS011;3081;50.584;7.032;2023-01-25T08:07:11;17.63;;;9.20;;
6101;SDS011;3081;50.584;7.032;2023-01-25T08:09:39;19.07;;;7.70;;
6101;SDS011;3081;50.584;7.032;2023-01-25T08:12:07;14.83;;;7.53;;
6101;SDS011;3081;50.584;7.032;2023-01-25T08:14:33;16.90;;;8.00;;
6101;SDS011;3081;50.584;7.032;2023-01-25T08:17:02;13.00;;;5.93;;
6101;SDS011;3081;50.584;7.032;2023-01-25T08:19:29;22.50;;;8.83;;
6101;SDS011;3081;50.584;7.032;2023-01-25T08:21:56;18.10;;;8.37;;
6101;SDS011;3081;50.584;7.032;2023-01-25T08:24:24;20.93;;;9.80;;
6101;SDS011;3081;50.584;7.032;2023-01-25T08:26:51;28.63;;;10.87;;
6101;SDS011;3081;50.584;7.032;2023-01-25T08:29:18;29.73;;;10.77;;
6101;SDS011;3081;50.584;7.032;2023-01-25T08:31:45;28.70;;;10.10;;
6101;SDS011;3081;50.584;7.032;2023-01-25T08:34:11;27.00;;;10.23;;
6101;SDS011;3081;50.584;7.032;2023-01-25T08:36:39;25.33;;;11.37;;
6101;SDS011;3081;50.584;7.032;2023-01-25T08:39:06;30.73;;;10.47;;
6101;SDS011;3081;50.584;7.032;2023-01-25T08:41:36;22.37;;;9.67;;
6101;SDS011;3081;50.584;7.032;2023-01-25T08:44:04;28.43;;;9.67;;
6101;SDS011;3081;50.584;7.032;2023-01-25T08:46:31;27.87;;;11.87;;
6101;SDS011;3081;50.584;7.032;2023-01-25T08:48:59;24.43;;;11.23;;
6101;SDS011;3081;50.584;7.032;2023-01-25T08:51:27;31.60;;;12.70;;
6101;SDS011;3081;50.584;7.032;2023-01-25T08:53:55;22.90;;;9.50;;
6101;SDS011;3081;50.584;7.032;2023-01-25T08:56:22;26.33;;;12.60;;
6101;SDS011;3081;50.584;7.032;2023-01-25T08:58:50;26.80;;;14.53;;
6101;SDS011;3081;50.584;7.032;2023-01-25T09:01:18;43.17;;;14.07;;
6101;SDS011;3081;50.584;7.032;2023-01-25T09:03:46;25.30;;;11.00;;
6101;SDS011;3081;50.584;7.032;2023-01-25T09:06:13;24.93;;;9.37;;
6101;SDS011;3081;50.584;7.032;2023-01-25T09:08:41;20.33;;;7.97;;
6101;SDS011;3081;50.584;7.032;2023-01-25T09:11:09;25.70;;;11.33;;
6101;SDS011;3081;50.584;7.032;2023-01-25T09:13:40;29.30;;;9.03;;
6101;SDS011;3081;50.584;7.032;2023-01-25T09:16:09;21.57;;;10.23;;
6101;SDS011;3081;50.584;7.032;2023-01-25T09:18:38;21.03;;;8.87;;
6101;SDS011;3081;50.584;7.032;2023-01-25T09:21:07;18.87;;;9.90;;
6101;SDS011;3081;50.584;7.032;2023-01-25T09:23:34;18.20;;;7.10;;
6101;SDS011;3081;50.584;7.032;2023-01-25T09:26:02;20.93;;;9.30;;
6101;SDS011;3081;50.584;7.032;2023-01-25T09:28:30;17.90;;;9.17;;
6101;SDS011;3081;50.584;7.032;2023-01-25T09:30:59;23.30;;;10.37;;
6101;SDS011;3081;50.584;7.032;2023-01-25T09:33:30;28.30;;;10.87;;
6101;SDS011;3081;50.584;7.032;2023-01-25T09:35:58;13.97;;;7.50;;
6101;SDS011;3081;50.584;7.032;2023-01-25T09:38:25;21.47;;;9.90;;
6101;SDS011;3081;50.584;7.032;2023-01-25T09:40:57;31.10;;;11.63;;
6101;SDS011;3081;50.584;7.032;2023-01-25T09:43:41;22.60;;;11.83;;
6101;SDS011;3081;50.584;7.032;2023-01-25T09:46:22;25.20;;;11.17;;
6101;SDS011;3081;50.584;7.032;2023-01-25T09:48:59;26.43;;;11.40;;
6101;SDS011;3081;50.584;7.032;2023-01-25T09:51:36;21.37;;;8.60;;
6101;SDS011;3081;50.584;7.032;2023-01-25T09:54:13;30.03;;;10.33;;
6101;SDS011;3081;50.584;7.032;2023-01-25T09:56:43;29.13;;;9.47;;
6101;SDS011;3081;50.584;7.032;2023-01-25T09:59:13;20.87;;;9.53;;
6101;SDS011;3081;50.584;7.032;2023-01-25T10:01:46;45.37;;;9.90;;
6101;SDS011;3081;50.584;7.032;2023-01-25T10:04:18;32.73;;;11.03;;
6101;SDS011;3081;50.584;7.032;2023-01-25T10:06:51;29.10;;;9.53;;
6101;SDS011;3081;50.584;7.032;2023-01-25T10:09:22;30.03;;;13.47;;
6101;SDS011;3081;50.584;7.032;2023-01-25T10:11:57;32.60;;;10.20;;
6101;SDS011;3081;50.584;7.032;2023-01-25T10:14:29;24.80;;;10.93;;
6101;SDS011;3081;50.584;7.032;2023-01-25T10:17:02;25.37;;;9.33;;
6101;SDS011;3081;50.584;7.032;2023-01-25T10:19:42;20.13;;;7.97;;
6101;SDS011;3081;50.584;7.032;2023-01-25T10:22:19;23.70;;;10.77;;
6101;SDS011;3081;50.584;7.032;2023-01-25T10:28:05;16.10;;;8.10;;
6101;SDS011;3081;50.584;7.032;2023-01-25T10:30:44;20.97;;;7.50;;
6101;SDS011;3081;50.584;7.032;2023-01-25T10:33:16;19.93;;;9.10;;
6101;SDS011;3081;50.584;7.032;2023-01-25T10:35:46;18.57;;;7.20;;
6101;SDS011;3081;50.584;7.032;2023-01-25T10:38:17;21.93;;;8.70;;
6101;SDS011;3081;50.584;7.032;2023-01-25T10:40:48;18.37;;;8.27;;
6101;SDS011;3081;50.584;7.032;2023-01-25T10:43:20;15.33;;;7.27;;
6101;SDS011;3081;50.584;7.032;2023-01-25T10:45:48;12.60;;;6.53;;
6101;SDS011;3081;50.584;7.032;2023-01-25T10:48:17;19.10;;;7.80;;
6101;SDS011;3081;50.584;7.032;2023-01-25T10:50:48;15.50;;;7.20;;
6101;SDS011;3081;50.584;7.032;2023-01-25T10:53:26;16.87;;;6.73;;
6101;SDS011;3081;50.584;7.032;2023-01-25T10:56:11;15.20;;;7.60;;
6101;SDS011;3081;50.584;7.032;2023-01-25T10:58:46;18.33;;;8.43;;
6101;SDS011;3081;50.584;7.032;2023-01-25T11:01:23;19.83;;;8.50;;
6101;SDS011;3081;50.584;7.032;2023-01-25T11:03:52;17.00;;;7.33;;
6101;SDS011;3081;50.584;7.032;2023-01-25T11:06:35;23.23;;;7.63;;
6101;SDS011;3081;50.584;7.032;2023-01-25T11:09:28;17.40;;;7.63;;
6101;SDS011;3081;50.584;7.032;2023-01-25T11:11:57;16.00;;;7.50;;
6101;SDS011;3081;50.584;7.032;2023-01-25T11:14:26;19.13;;;7.73;;
6101;SDS011;3081;50.584;7.032;2023-01-25T11:16:54;16.30;;;7.70;;
6101;SDS011;3081;50.584;7.032;2023-01-25T11:19:26;14.70;;;6.30;;
6101;SDS011;3081;50.584;7.032;2023-01-25T11:21:58;16.73;;;7.30;;
6101;SDS011;3081;50.584;7.032;2023-01-25T11:24:27;16.43;;;7.37;;
6101;SDS011;3081;50.584;7.032;2023-01-25T11:27:11;21.03;;;8.23;;
6101;SDS011;3081;50.584;7.032;2023-01-25T11:29:41;20.30;;;7.43;;
6101;SDS011;3081;50.584;7.032;2023-01-25T11:32:13;16.87;;;7.07;;
6101;SDS011;3081;50.584;7.032;2023-01-25T11:34:46;20.37;;;7.63;;
6101;SDS011;3081;50.584;7.032;2023-01-25T11:40:11;15.90;;;7.00;;
6101;SDS011;3081;50.584;7.032;2023-01-25T11:42:47;14.00;;;6.07;;
6101;SDS011;3081;50.584;7.032;2023-01-25T11:45:36;14.73;;;6.80;;
6101;SDS011;3081;50.584;7.032;2023-01-25T11:51:35;14.60;;;7.47;;
6101;SDS011;3081;50.584;7.032;2023-01-25T11:54:14;20.43;;;7.80;;
6101;SDS011;3081;50.584;7.032;2023-01-25T11:56:56;16.77;;;6.47;;
6101;SDS011;3081;50.584;7.032;2023-01-25T11:59:36;19.70;;;7.33;;
6101;SDS011;3081;50.584;7.032;2023-01-25T12:02:25;17.43;;;6.93;;
6101;SDS011;3081;50.584;7.032;2023-01-25T12:05:16;15.70;;;6.57;;
6101;SDS011;3081;50.584;7.032;2023-01-25T12:07:56;20.93;;;8.33;;
6101;SDS011;3081;50.584;7.032;2023-01-25T12:10:34;16.73;;;8.03;;
6101;SDS011;3081;50.584;7.032;2023-01-25T12:13:11;16.97;;;8.20;;
6101;SDS011;3081;50.584;7.032;2023-01-25T12:15:48;14.33;;;7.43;;
6101;SDS011;3081;50.584;7.032;2023-01-25T12:18:32;13.07;;;5.70;;
6101;SDS011;3081;50.584;7.032;2023-01-25T12:21:14;17.23;;;8.03;;
6101;SDS011;3081;50.584;7.032;2023-01-25T12:23:53;15.90;;;7.63;;
6101;SDS011;3081;50.584;7.032;2023-01-25T12:26:33;22.37;;;9.50;;
6101;SDS011;3081;50.584;7.032;2023-01-25T12:29:13;18.37;;;8.30;;
6101;SDS011;3081;50.584;7.032;2023-01-25T12:31:47;17.10;;;7.90;;
6101;SDS011;3081;50.584;7.032;2023-01-25T12:34:20;18.60;;;8.70;;
6101;SDS011;3081;50.584;7.032;2023-01-25T12:36:49;19.50;;;8.30;;
6101;SDS011;3081;50.584;7.032;2023-01-25T12:39:18;18.97;;;9.33;;
6101;SDS011;3081;50.584;7.032;2023-01-25T12:41:51;18.20;;;9.60;;
6101;SDS011;3081;50.584;7.032;2023-01-25T12:44:23;19.90;;;9.40;;
6101;SDS011;3081;50.584;7.032;2023-01-25T12:46:56;17.73;;;6.70;;
6101;SDS011;3081;50.584;7.032;2023-01-25T12:49:30;14.20;;;6.70;;
6101;SDS011;3081;50.584;7.032;2023-01-25T12:52:05;13.93;;;6.23;;
6101;SDS011;3081;50.584;7.032;2023-01-25T12:54:40;15.67;;;7.00;;
6101;SDS011;3081;50.584;7.032;2023-01-25T12:57:14;19.60;;;7.70;;
6101;SDS011;3081;50.584;7.032;2023-01-25T12:59:49;21.10;;;7.70;;
6101;SDS011;3081;50.584;7.032;2023-01-25T13:02:29;17.37;;;8.77;;
6101;SDS011;3081;50.584;7.032;2023-01-25T13:05:20;15.57;;;7.20;;
6101;SDS011;3081;50.584;7.032;2023-01-25T13:07:54;16.67;;;8.20;;
6101;SDS011;3081;50.584;7.032;2023-01-25T13:10:28;13.00;;;6.70;;
6101;SDS011;3081;50.584;7.032;2023-01-25T13:13:01;14.13;;;6.63;;
6101;SDS011;3081;50.584;7.032;2023-01-25T13:15:43;13.87;;;7.07;;
6101;SDS011;3081;50.584;7.032;2023-01-25T13:21:10;11.33;;;5.67;;
6101;SDS011;3081;50.584;7.032;2023-01-25T13:24:11;12.93;;;5.43;;
6101;SDS011;3081;50.584;7.032;2023-01-25T13:26:47;17.83;;;7.43;;
6101;SDS011;3081;50.584;7.032;2023-01-25T13:32:11;14.20;;;6.43;;
6101;SDS011;3081;50.584;7.032;2023-01-25T13:34:55;15.87;;;5.47;;
6101;SDS011;3081;50.584;7.032;2023-01-25T13:37:24;21.80;;;7.77;;
6101;SDS011;3081;50.584;7.032;2023-01-25T13:39:53;17.80;;;7.70;;
6101;SDS011;3081;50.584;7.032;2023-01-25T13:42:22;16.17;;;7.50;;
6101;SDS011;3081;50.584;7.032;2023-01-25T13:44:51;18.77;;;7.67;;
6101;SDS011;3081;50.584;7.032;2023-01-25T13:47:19;25.17;;;8.10;;
6101;SDS011;3081;50.584;7.032;2023-01-25T13:49:50;19.63;;;9.03;;
6101;SDS011;3081;50.584;7.032;2023-01-25T13:52:23;15.60;;;7.50;;
6101;SDS011;3081;50.584;7.032;2023-01-25T13:54:55;13.97;;;6.67;;
6101;SDS011;3081;50.584;7.032;2023-01-25T13:57:24;18.80;;;7.27;;
6101;SDS011;3081;50.584;7.032;2023-01-25T14:00:03;18.80;;;8.03;;
6101;SDS011;3081;50.584;7.032;2023-01-25T14:02:35;30.40;;;13.20;;
6101;SDS011;3081;50.584;7.032;2023-01-25T14:05:04;26.80;;;13.37;;
6101;SDS011;3081;50.584;7.032;2023-01-25T14:07:33;25.40;;;10.17;;
6101;SDS011;3081;50.584;7.032;2023-01-25T14:10:02;24.77;;;11.03;;
6101;SDS011;3081;50.584;7.032;2023-01-25T14:12:34;18.10;;;8.23;;
6101;SDS011;3081;50.584;7.032;2023-01-25T14:15:09;21.30;;;9.73;;
6101;SDS011;3081;50.584;7.032;2023-01-25T14:17:43;19.10;;;8.37;;
6101;SDS011;3081;50.584;7.032;2023-01-25T14:20:16;24.73;;;8.20;;
6101;SDS011;3081;50.584;7.032;2023-01-25T14:22:49;19.73;;;7.57;;
6101;SDS011;3081;50.584;7.032;2023-01-25T14:25:17;19.93;;;8.90;;
6101;SDS011;3081;50.584;7.032;2023-01-25T14:27:47;32.60;;;14.47;;
6101;SDS011;3081;50.584;7.032;2023-01-25T14:30:18;69.50;;;27.30;;
6101;SDS011;3081;50.584;7.032;2023-01-25T14:32:47;127.23;;;48.10;;
6101;SDS011;3081;50.584;7.032;2023-01-25T14:35:34;53.47;;;21.20;;
6101;SDS011;3081;50.584;7.032;2023-01-25T14:38:17;39.63;;;15.93;;
6101;SDS011;3081;50.584;7.032;2023-01-25T14:40:53;31.90;;;13.20;;
6101;SDS011;3081;50.584;7.032;2023-01-25T14:43:23;30.00;;;11.23;;
6101;SDS011;3081;50.584;7.032;2023-01-25T14:45:51;70.73;;;30.37;;
6101;SDS011;3081;50.584;7.032;2023-01-25T14:48:34;32.27;;;12.37;;
6101;SDS011;3081;50.584;7.032;2023-01-25T14:51:03;20.00;;;7.93;;
6101;SDS011;3081;50.584;7.032;2023-01-25T14:53:44;24.83;;;8.20;;
6101;SDS011;3081;50.584;7.032;2023-01-25T14:56:25;17.00;;;7.10;;
6101;SDS011;3081;50.584;7.032;2023-01-25T14:58:55;19.17;;;6.97;;
6101;SDS011;3081;50.584;7.032;2023-01-25T15:01:27;18.27;;;7.33;;
6101;SDS011;3081;50.584;7.032;2023-01-25T15:03:56;13.40;;;6.00;;
6101;SDS011;3081;50.584;7.032;2023-01-25T15:06:23;14.30;;;6.57;;
6101;SDS011;3081;50.584;7.032;2023-01-25T15:08:51;13.57;;;6.10;;
6101;SDS011;3081;50.584;7.032;2023-01-25T15:11:26;17.00;;;5.80;;
6101;SDS011;3081;50.584;7.032;2023-01-25T15:14:03;17.40;;;7.13;;
6101;SDS011;3081;50.584;7.032;2023-01-25T15:16:41;25.13;;;8.80;;
6101;SDS011;3081;50.584;7.032;2023-01-25T15:19:22;16.77;;;6.90;;
6101;SDS011;3081;50.584;7.032;2023-01-25T15:21:50;17.37;;;6.47;;
6101;SDS011;3081;50.584;7.032;2023-01-25T15:24:21;21.93;;;7.17;;
6101;SDS011;3081;50.584;7.032;2023-01-25T15:26:49;15.03;;;5.73;;
6101;SDS011;3081;50.584;7.032;2023-01-25T15:29:18;16.43;;;5.77;;